sensor_id;sensor_type;location;lat;lon;timestamp;temperature;humidity
46676;DHT22;32412;51.478;5.694;2023-07-29T00:02:06;18.30;99.90
46676;DHT22;32412;51.478;5.694;2023-07-29T00:04:31;18.30;99.90
46676;DHT22;32412;51.478;5.694;2023-07-29T00:06:57;18.30;99.90
46676;DHT22;32412;51.478;5.694;2023-07-29T00:09:22;18.40;99.90
46676;DHT22;32412;51.478;5.694;2023-07-29T00:11:48;18.40;99.90
46676;DHT22;32412;51.478;5.694;2023-07-29T00:14:14;18.40;99.90
46676;DHT22;32412;51.478;5.694;2023-07-29T00:16:40;18.40;99.90
46676;DHT22;32412;51.478;5.694;2023-07-29T00:19:05;18.50;99.90
46676;DHT22;32412;51.478;5.694;2023-07-29T00:21:31;18.50;99.90
46676;DHT22;32412;51.478;5.694;2023-07-29T00:23:57;18.50;99.90
46676;DHT22;32412;51.478;5.694;2023-07-29T00:26:23;18.60;99.90
46676;DHT22;32412;51.478;5.694;2023-07-29T00:28:51;18.60;99.90
46676;DHT22;32412;51.478;5.694;2023-07-29T00:31:17;18.60;99.90
46676;DHT22;32412;51.478;5.694;2023-07-29T00:33:43;18.60;99.90
46676;DHT22;32412;51.478;5.694;2023-07-29T00:36:08;18.60;99.90
46676;DHT22;32412;51.478;5.694;2023-07-29T00:38:34;18.60;99.90
46676;DHT22;32412;51.478;5.694;2023-07-29T00:41:02;18.60;99.90
46676;DHT22;32412;51.478;5.694;2023-07-29T00:43:28;18.60;99.90
46676;DHT22;32412;51.478;5.694;2023-07-29T00:45:54;18.60;99.90
46676;DHT22;32412;51.478;5.694;2023-07-29T00:48:20;18.60;99.90
46676;DHT22;32412;51.478;5.694;2023-07-29T00:50:45;18.60;99.90
46676;DHT22;32412;51.478;5.694;2023-07-29T00:53:11;18.60;99.90
46676;DHT22;32412;51.478;5.694;2023-07-29T00:55:37;18.60;99.90
46676;DHT22;32412;51.478;5.694;2023-07-29T00:58:03;18.50;99.90
46676;DHT22;32412;51.478;5.694;2023-07-29T01:00:28;18.50;99.90
46676;DHT22;32412;51.478;5.694;2023-07-29T01:02:54;18.40;99.90
46676;DHT22;32412;51.478;5.694;2023-07-29T01:05:21;18.40;99.90
46676;DHT22;32412;51.478;5.694;2023-07-29T01:07:56;18.40;99.90
46676;DHT22;32412;51.478;5.694;2023-07-29T01:13:10;18.40;99.90
46676;DHT22;32412;51.478;5.694;2023-07-29T01:15:47;18.40;99.90
46676;DHT22;32412;51.478;5.694;2023-07-29T01:18:32;18.40;99.90
46676;DHT22;32412;51.478;5.694;2023-07-29T01:21:04;18.40;99.90
46676;DHT22;32412;51.478;5.694;2023-07-29T01:23:33;18.30;99.90
46676;DHT22;32412;51.478;5.694;2023-07-29T01:26:00;18.30;99.90
46676;DHT22;32412;51.478;5.694;2023-07-29T01:28:26;18.30;99.90
46676;DHT22;32412;51.478;5.694;2023-07-29T01:30:59;18.30;99.90
46676;DHT22;32412;51.478;5.694;2023-07-29T01:33:27;18.30;99.90
46676;DHT22;32412;51.478;5.694;2023-07-29T01:36:02;18.30;99.90
46676;DHT22;32412;51.478;5.694;2023-07-29T01:38:35;18.30;99.90
46676;DHT22;32412;51.478;5.694;2023-07-29T01:41:02;18.40;99.90
46676;DHT22;32412;51.478;5.694;2023-07-29T01:43:31;18.40;99.90
46676;DHT22;32412;51.478;5.694;2023-07-29T01:45:57;18.40;99.90
46676;DHT22;32412;51.478;5.694;2023-07-29T01:48:23;18.40;99.90
46676;DHT22;32412;51.478;5.694;2023-07-29T01:50:49;18.40;99.90
46676;DHT22;32412;51.478;5.694;2023-07-29T01:53:14;18.40;99.90
46676;DHT22;32412;51.478;5.694;2023-07-29T01:55:43;18.40;99.90
46676;DHT22;32412;51.478;5.694;2023-07-29T01:58:10;18.30;99.90
46676;DHT22;32412;51.478;5.694;2023-07-29T02:00:35;18.30;99.90
46676;DHT22;32412;51.478;5.694;2023-07-29T02:03:01;18.30;99.90
46676;DHT22;32412;51.478;5.694;2023-07-29T02:05:27;18.20;99.90
46676;DHT22;32412;51.478;5.694;2023-07-29T02:07:52;18.10;99.90
46676;DHT22;32412;51.478;5.694;2023-07-29T02:10:18;18.10;99.90
46676;DHT22;32412;51.478;5.694;2023-07-29T02:12:43;18.10;99.90
46676;DHT22;32412;51.478;5.694;2023-07-29T02:15:09;18.00;99.90
46676;DHT22;32412;51.478;5.694;2023-07-29T02:17:36;17.90;99.90
46676;DHT22;32412;51.478;5.694;2023-07-29T02:20:02;17.90;99.90
46676;DHT22;32412;51.478;5.694;2023-07-29T02:22:29;17.80;99.90
46676;DHT22;32412;51.478;5.694;2023-07-29T02:24:54;17.80;99.90
46676;DHT22;32412;51.478;5.694;2023-07-29T02:27:20;17.80;99.90
46676;DHT22;32412;51.478;5.694;2023-07-29T02:29:46;17.70;99.90
46676;DHT22;32412;51.478;5.694;2023-07-29T02:32:12;17.80;99.90
46676;DHT22;32412;51.478;5.694;2023-07-29T02:34:37;17.70;99.90
46676;DHT22;32412;51.478;5.694;2023-07-29T02:37:03;17.60;99.90
46676;DHT22;32412;51.478;5.694;2023-07-29T02:39:29;17.60;99.90
46676;DHT22;32412;51.478;5.694;2023-07-29T02:41:54;17.60;99.90
46676;DHT22;32412;51.478;5.694;2023-07-29T02:44:21;17.60;99.90
46676;DHT22;32412;51.478;5.694;2023-07-29T02:46:47;17.60;99.90
46676;DHT22;32412;51.478;5.694;2023-07-29T02:49:12;17.60;99.90
46676;DHT22;32412;51.478;5.694;2023-07-29T02:51:38;17.50;99.90
46676;DHT22;32412;51.478;5.694;2023-07-29T02:54:03;17.50;99.90
46676;DHT22;32412;51.478;5.694;2023-07-29T02:56:29;17.40;99.90
46676;DHT22;32412;51.478;5.694;2023-07-29T02:58:56;17.40;99.90
46676;DHT22;32412;51.478;5.694;2023-07-29T03:01:23;17.40;99.90
46676;DHT22;32412;51.478;5.694;2023-07-29T03:03:50;17.40;99.90
46676;DHT22;32412;51.478;5.694;2023-07-29T03:06:16;17.40;99.90
46676;DHT22;32412;51.478;5.694;2023-07-29T03:08:42;17.30;99.90
46676;DHT22;32412;51.478;5.694;2023-07-29T03:11:09;17.30;99.90
46676;DHT22;32412;51.478;5.694;2023-07-29T03:13:36;17.30;99.90
46676;DHT22;32412;51.478;5.694;2023-07-29T03:18:33;17.20;99.90
46676;DHT22;32412;51.478;5.694;2023-07-29T03:20:59;17.30;99.90
46676;DHT22;32412;51.478;5.694;2023-07-29T03:23:24;17.20;99.90
46676;DHT22;32412;51.478;5.694;2023-07-29T03:25:50;17.20;99.90
46676;DHT22;32412;51.478;5.694;2023-07-29T03:28:25;17.20;99.90
46676;DHT22;32412;51.478;5.694;2023-07-29T03:30:51;17.20;99.90
46676;DHT22;32412;51.478;5.694;2023-07-29T03:33:17;17.10;99.90
46676;DHT22;32412;51.478;5.694;2023-07-29T03:35:42;17.10;99.90
46676;DHT22;32412;51.478;5.694;2023-07-29T03:38:10;17.10;99.90
46676;DHT22;32412;51.478;5.694;2023-07-29T03:40:37;17.10;99.90
46676;DHT22;32412;51.478;5.694;2023-07-29T03:43:02;17.10;99.90
46676;DHT22;32412;51.478;5.694;2023-07-29T03:45:28;17.10;99.90
46676;DHT22;32412;51.478;5.694;2023-07-29T03:47:54;17.10;99.90
46676;DHT22;32412;51.478;5.694;2023-07-29T03:50:19;17.00;99.90
46676;DHT22;32412;51.478;5.694;2023-07-29T03:52:45;17.00;99.90
46676;DHT22;32412;51.478;5.694;2023-07-29T03:55:11;16.90;99.90
46676;DHT22;32412;51.478;5.694;2023-07-29T03:57:37;16.90;99.90
46676;DHT22;32412;51.478;5.694;2023-07-29T04:00:03;16.90;99.90
46676;DHT22;32412;51.478;5.694;2023-07-29T04:02:29;16.90;99.90
46676;DHT22;32412;51.478;5.694;2023-07-29T04:04:55;16.90;99.90
46676;DHT22;32412;51.478;5.694;2023-07-29T04:07:20;16.90;99.90
46676;DHT22;32412;51.478;5.694;2023-07-29T04:09:46;16.80;99.90
46676;DHT22;32412;51.478;5.694;2023-07-29T04:12:12;16.80;99.90
46676;DHT22;32412;51.478;5.694;2023-07-29T04:14:37;16.70;99.90
46676;DHT22;32412;51.478;5.694;2023-07-29T04:17:03;16.70;99.90
46676;DHT22;32412;51.478;5.694;2023-07-29T04:19:29;16.70;99.90
46676;DHT22;32412;51.478;5.694;2023-07-29T04:21:54;16.60;99.90
46676;DHT22;32412;51.478;5.694;2023-07-29T04:24:20;16.60;99.90
46676;DHT22;32412;51.478;5.694;2023-07-29T04:26:48;16.60;99.90
46676;DHT22;32412;51.478;5.694;2023-07-29T04:29:14;16.60;99.90
46676;DHT22;32412;51.478;5.694;2023-07-29T04:31:39;16.70;99.90
46676;DHT22;32412;51.478;5.694;2023-07-29T04:34:05;16.60;99.90
46676;DHT22;32412;51.478;5.694;2023-07-29T04:36:31;16.60;99.90
46676;DHT22;32412;51.478;5.694;2023-07-29T04:38:56;16.60;99.90
46676;DHT22;32412;51.478;5.694;2023-07-29T04:41:22;16.60;99.90
46676;DHT22;32412;51.478;5.694;2023-07-29T04:43:48;16.60;99.90
46676;DHT22;32412;51.478;5.694;2023-07-29T04:46:15;16.50;99.90
46676;DHT22;32412;51.478;5.694;2023-07-29T04:48:40;16.60;99.90
46676;DHT22;32412;51.478;5.694;2023-07-29T04:51:06;16.60;99.90
46676;DHT22;32412;51.478;5.694;2023-07-29T04:53:32;16.70;99.90
46676;DHT22;32412;51.478;5.694;2023-07-29T04:55:58;16.80;99.90
46676;DHT22;32412;51.478;5.694;2023-07-29T04:58:23;16.80;99.90
46676;DHT22;32412;51.478;5.694;2023-07-29T05:00:49;16.90;99.90
46676;DHT22;32412;51.478;5.694;2023-07-29T05:03:14;16.90;99.90
46676;DHT22;32412;51.478;5.694;2023-07-29T05:05:40;16.90;99.90
46676;DHT22;32412;51.478;5.694;2023-07-29T05:08:06;16.90;99.90
46676;DHT22;32412;51.478;5.694;2023-07-29T05:10:32;17.00;99.90
46676;DHT22;32412;51.478;5.694;2023-07-29T05:12:57;17.00;99.90
46676;DHT22;32412;51.478;5.694;2023-07-29T05:15:23;17.10;99.90
46676;DHT22;32412;51.478;5.694;2023-07-29T05:17:48;17.10;99.90
46676;DHT22;32412;51.478;5.694;2023-07-29T05:20:14;17.10;99.90
46676;DHT22;32412;51.478;5.694;2023-07-29T05:22:40;17.10;99.90
46676;DHT22;32412;51.478;5.694;2023-07-29T05:25:06;17.20;99.90
46676;DHT22;32412;51.478;5.694;2023-07-29T05:27:31;17.20;99.90
46676;DHT22;32412;51.478;5.694;2023-07-29T05:29:57;17.30;99.90
46676;DHT22;32412;51.478;5.694;2023-07-29T05:32:23;17.30;99.90
46676;DHT22;32412;51.478;5.694;2023-07-29T05:34:48;17.30;99.90
46676;DHT22;32412;51.478;5.694;2023-07-29T05:37:14;17.40;99.90
46676;DHT22;32412;51.478;5.694;2023-07-29T05:39:40;17.40;99.90
46676;DHT22;32412;51.478;5.694;2023-07-29T05:42:05;17.30;99.90
46676;DHT22;32412;51.478;5.694;2023-07-29T05:44:31;17.30;99.90
46676;DHT22;32412;51.478;5.694;2023-07-29T05:46:57;17.30;99.90
46676;DHT22;32412;51.478;5.694;2023-07-29T05:49:23;17.20;99.90
46676;DHT22;32412;51.478;5.694;2023-07-29T05:51:48;17.20;99.90
46676;DHT22;32412;51.478;5.694;2023-07-29T05:54:17;17.20;99.90
46676;DHT22;32412;51.478;5.694;2023-07-29T05:56:42;17.20;99.90
46676;DHT22;32412;51.478;5.694;2023-07-29T05:59:08;17.20;99.90
46676;DHT22;32412;51.478;5.694;2023-07-29T06:01:34;17.40;99.90
46676;DHT22;32412;51.478;5.694;2023-07-29T06:04:00;17.40;99.90
46676;DHT22;32412;51.478;5.694;2023-07-29T06:06:26;17.60;99.90
46676;DHT22;32412;51.478;5.694;2023-07-29T06:08:52;17.80;99.90
46676;DHT22;32412;51.478;5.694;2023-07-29T06:11:18;18.00;99.90
46676;DHT22;32412;51.478;5.694;2023-07-29T06:13:43;18.20;99.90
46676;DHT22;32412;51.478;5.694;2023-07-29T06:16:09;18.50;99.90
46676;DHT22;32412;51.478;5.694;2023-07-29T06:18:35;18.50;99.90
46676;DHT22;32412;51.478;5.694;2023-07-29T06:21:00;18.50;99.90
46676;DHT22;32412;51.478;5.694;2023-07-29T06:23:26;18.40;99.90
46676;DHT22;32412;51.478;5.694;2023-07-29T06:25:52;18.30;99.90
46676;DHT22;32412;51.478;5.694;2023-07-29T06:28:17;18.20;99.90
46676;DHT22;32412;51.478;5.694;2023-07-29T06:30:43;18.10;99.90
46676;DHT22;32412;51.478;5.694;2023-07-29T06:33:08;18.10;99.90
46676;DHT22;32412;51.478;5.694;2023-07-29T06:35:34;18.20;99.90
46676;DHT22;32412;51.478;5.694;2023-07-29T06:38:00;18.40;99.90
46676;DHT22;32412;51.478;5.694;2023-07-29T06:40:26;18.70;99.90
46676;DHT22;32412;51.478;5.694;2023-07-29T06:42:51;18.90;99.90
46676;DHT22;32412;51.478;5.694;2023-07-29T06:45:17;19.10;99.90
46676;DHT22;32412;51.478;5.694;2023-07-29T06:47:42;19.20;99.90
46676;DHT22;32412;51.478;5.694;2023-07-29T06:50:08;19.30;99.90
46676;DHT22;32412;51.478;5.694;2023-07-29T06:52:34;19.50;99.90
46676;DHT22;32412;51.478;5.694;2023-07-29T06:55:02;19.40;99.90
46676;DHT22;32412;51.478;5.694;2023-07-29T06:57:27;19.30;99.90
46676;DHT22;32412;51.478;5.694;2023-07-29T06:59:53;19.30;99.90
46676;DHT22;32412;51.478;5.694;2023-07-29T07:02:19;19.50;99.90
46676;DHT22;32412;51.478;5.694;2023-07-29T07:04:44;19.80;99.90
46676;DHT22;32412;51.478;5.694;2023-07-29T07:07:10;20.00;99.90
46676;DHT22;32412;51.478;5.694;2023-07-29T07:09:36;20.00;99.90
46676;DHT22;32412;51.478;5.694;2023-07-29T07:12:02;20.30;99.90
46676;DHT22;32412;51.478;5.694;2023-07-29T07:14:27;20.40;99.90
46676;DHT22;32412;51.478;5.694;2023-07-29T07:16:53;20.50;99.90
46676;DHT22;32412;51.478;5.694;2023-07-29T07:19:18;20.70;99.90
46676;DHT22;32412;51.478;5.694;2023-07-29T07:21:44;20.60;99.90
46676;DHT22;32412;51.478;5.694;2023-07-29T07:24:10;20.60;99.90
46676;DHT22;32412;51.478;5.694;2023-07-29T07:26:35;20.50;99.90
46676;DHT22;32412;51.478;5.694;2023-07-29T07:29:01;20.30;99.90
46676;DHT22;32412;51.478;5.694;2023-07-29T07:31:27;20.30;99.90
46676;DHT22;32412;51.478;5.694;2023-07-29T07:33:52;20.30;99.90
46676;DHT22;32412;51.478;5.694;2023-07-29T07:36:18;20.40;99.90
46676;DHT22;32412;51.478;5.694;2023-07-29T07:38:43;20.40;99.90
46676;DHT22;32412;51.478;5.694;2023-07-29T07:41:09;20.40;99.90
46676;DHT22;32412;51.478;5.694;2023-07-29T07:43:35;20.40;99.90
46676;DHT22;32412;51.478;5.694;2023-07-29T07:46:01;20.50;99.90
46676;DHT22;32412;51.478;5.694;2023-07-29T07:48:27;20.60;99.90
46676;DHT22;32412;51.478;5.694;2023-07-29T07:50:53;20.50;99.90
46676;DHT22;32412;51.478;5.694;2023-07-29T07:53:19;20.50;99.90
46676;DHT22;32412;51.478;5.694;2023-07-29T07:55:45;20.50;99.90
46676;DHT22;32412;51.478;5.694;2023-07-29T07:58:11;20.70;99.90
46676;DHT22;32412;51.478;5.694;2023-07-29T08:00:37;20.70;99.90
46676;DHT22;32412;51.478;5.694;2023-07-29T08:03:02;20.90;99.90
46676;DHT22;32412;51.478;5.694;2023-07-29T08:05:28;21.10;99.90
46676;DHT22;32412;51.478;5.694;2023-07-29T08:07:54;21.20;99.90
46676;DHT22;32412;51.478;5.694;2023-07-29T08:10:20;21.30;99.90
46676;DHT22;32412;51.478;5.694;2023-07-29T08:12:46;21.30;99.90
46676;DHT22;32412;51.478;5.694;2023-07-29T08:15:11;21.50;99.90
46676;DHT22;32412;51.478;5.694;2023-07-29T08:17:37;21.90;99.90
46676;DHT22;32412;51.478;5.694;2023-07-29T08:20:03;21.90;99.90
46676;DHT22;32412;51.478;5.694;2023-07-29T08:22:28;21.90;99.90
46676;DHT22;32412;51.478;5.694;2023-07-29T08:24:54;21.90;99.90
46676;DHT22;32412;51.478;5.694;2023-07-29T08:27:19;21.90;99.90
46676;DHT22;32412;51.478;5.694;2023-07-29T08:29:45;22.10;99.90
46676;DHT22;32412;51.478;5.694;2023-07-29T08:32:11;22.30;99.90
46676;DHT22;32412;51.478;5.694;2023-07-29T08:34:36;22.30;99.90
46676;DHT22;32412;51.478;5.694;2023-07-29T08:37:02;22.30;99.90
46676;DHT22;32412;51.478;5.694;2023-07-29T08:39:28;22.20;99.90
46676;DHT22;32412;51.478;5.694;2023-07-29T08:42:04;22.10;99.90
46676;DHT22;32412;51.478;5.694;2023-07-29T08:44:36;21.80;99.90
46676;DHT22;32412;51.478;5.694;2023-07-29T08:47:05;21.70;99.90
46676;DHT22;32412;51.478;5.694;2023-07-29T08:49:31;21.40;99.90
46676;DHT22;32412;51.478;5.694;2023-07-29T08:51:57;21.20;99.90
46676;DHT22;32412;51.478;5.694;2023-07-29T08:54:23;21.20;99.90
46676;DHT22;32412;51.478;5.694;2023-07-29T08:56:49;21.20;99.90
46676;DHT22;32412;51.478;5.694;2023-07-29T08:59:16;21.40;99.90
46676;DHT22;32412;51.478;5.694;2023-07-29T09:01:43;21.80;99.90
46676;DHT22;32412;51.478;5.694;2023-07-29T09:04:09;22.10;99.90
46676;DHT22;32412;51.478;5.694;2023-07-29T09:06:35;22.10;99.90
46676;DHT22;32412;51.478;5.694;2023-07-29T09:09:04;22.00;99.90
46676;DHT22;32412;51.478;5.694;2023-07-29T09:11:30;22.30;99.90
46676;DHT22;32412;51.478;5.694;2023-07-29T09:13:56;22.70;99.90
46676;DHT22;32412;51.478;5.694;2023-07-29T09:16:22;23.10;99.90
46676;DHT22;32412;51.478;5.694;2023-07-29T09:18:49;23.40;99.90
46676;DHT22;32412;51.478;5.694;2023-07-29T09:21:22;23.60;99.90
46676;DHT22;32412;51.478;5.694;2023-07-29T09:23:50;23.80;99.90
46676;DHT22;32412;51.478;5.694;2023-07-29T09:26:25;24.10;99.90
46676;DHT22;32412;51.478;5.694;2023-07-29T09:28:57;23.90;99.90
46676;DHT22;32412;51.478;5.694;2023-07-29T09:31:27;23.50;99.90
46676;DHT22;32412;51.478;5.694;2023-07-29T09:34:01;23.10;99.90
46676;DHT22;32412;51.478;5.694;2023-07-29T09:36:29;22.90;99.90
46676;DHT22;32412;51.478;5.694;2023-07-29T09:38:56;23.10;99.90
46676;DHT22;32412;51.478;5.694;2023-07-29T09:41:29;23.80;99.90
46676;DHT22;32412;51.478;5.694;2023-07-29T09:43:59;24.50;99.90
46676;DHT22;32412;51.478;5.694;2023-07-29T09:46:34;25.10;99.90
46676;DHT22;32412;51.478;5.694;2023-07-29T09:49:04;25.40;99.90
46676;DHT22;32412;51.478;5.694;2023-07-29T09:51:31;25.00;99.90
46676;DHT22;32412;51.478;5.694;2023-07-29T09:53:57;24.70;99.90
46676;DHT22;32412;51.478;5.694;2023-07-29T09:56:27;24.40;99.90
46676;DHT22;32412;51.478;5.694;2023-07-29T09:58:55;24.60;99.90
46676;DHT22;32412;51.478;5.694;2023-07-29T10:01:21;24.70;99.90
46676;DHT22;32412;51.478;5.694;2023-07-29T10:03:47;24.80;99.90
46676;DHT22;32412;51.478;5.694;2023-07-29T10:06:14;24.50;99.90
46676;DHT22;32412;51.478;5.694;2023-07-29T10:08:42;23.80;99.90
46676;DHT22;32412;51.478;5.694;2023-07-29T10:11:09;23.60;99.90
46676;DHT22;32412;51.478;5.694;2023-07-29T10:13:37;23.30;99.90
46676;DHT22;32412;51.478;5.694;2023-07-29T10:16:03;23.60;99.90
46676;DHT22;32412;51.478;5.694;2023-07-29T10:18:31;24.00;99.90
46676;DHT22;32412;51.478;5.694;2023-07-29T10:20:58;24.70;99.90
46676;DHT22;32412;51.478;5.694;2023-07-29T10:23:26;24.80;99.90
46676;DHT22;32412;51.478;5.694;2023-07-29T10:26:00;24.80;99.90
46676;DHT22;32412;51.478;5.694;2023-07-29T10:28:30;25.10;99.90
46676;DHT22;32412;51.478;5.694;2023-07-29T10:30:57;25.30;99.90
46676;DHT22;32412;51.478;5.694;2023-07-29T10:33:23;25.70;99.90
46676;DHT22;32412;51.478;5.694;2023-07-29T10:35:49;25.60;99.90
46676;DHT22;32412;51.478;5.694;2023-07-29T10:38:16;25.90;99.90
46676;DHT22;32412;51.478;5.694;2023-07-29T10:40:52;25.50;99.90
46676;DHT22;32412;51.478;5.694;2023-07-29T10:43:32;25.70;99.90
46676;DHT22;32412;51.478;5.694;2023-07-29T10:46:21;26.70;99.90
46676;DHT22;32412;51.478;5.694;2023-07-29T10:53:57;28.40;99.90
46676;DHT22;32412;51.478;5.694;2023-07-29T10:56:31;28.20;99.90
46676;DHT22;32412;51.478;5.694;2023-07-29T11:01:42;27.80;99.90
46676;DHT22;32412;51.478;5.694;2023-07-29T11:12:35;25.40;99.90
46676;DHT22;32412;51.478;5.694;2023-07-29T11:15:19;25.30;99.90
46676;DHT22;32412;51.478;5.694;2023-07-29T11:17:56;25.10;99.90
46676;DHT22;32412;51.478;5.694;2023-07-29T11:20:29;24.90;99.90
46676;DHT22;32412;51.478;5.694;2023-07-29T11:22:57;24.90;99.90
46676;DHT22;32412;51.478;5.694;2023-07-29T11:25:25;25.00;99.90
46676;DHT22;32412;51.478;5.694;2023-07-29T11:27:53;24.80;99.90
46676;DHT22;32412;51.478;5.694;2023-07-29T11:30:19;24.70;99.90
46676;DHT22;32412;51.478;5.694;2023-07-29T11:32:45;24.60;99.90
46676;DHT22;32412;51.478;5.694;2023-07-29T11:35:13;24.70;99.90
46676;DHT22;32412;51.478;5.694;2023-07-29T11:37:41;24.90;99.90
46676;DHT22;32412;51.478;5.694;2023-07-29T11:40:07;25.40;99.90
46676;DHT22;32412;51.478;5.694;2023-07-29T11:42:36;25.30;99.90
46676;DHT22;32412;51.478;5.694;2023-07-29T11:45:03;25.10;99.90
46676;DHT22;32412;51.478;5.694;2023-07-29T11:47:33;24.80;99.90
46676;DHT22;32412;51.478;5.694;2023-07-29T11:50:06;24.30;99.90
46676;DHT22;32412;51.478;5.694;2023-07-29T11:52:35;23.70;99.90
46676;DHT22;32412;51.478;5.694;2023-07-29T11:55:02;22.80;99.90
46676;DHT22;32412;51.478;5.694;2023-07-29T11:57:30;21.80;99.90
46676;DHT22;32412;51.478;5.694;2023-07-29T11:59:56;20.90;99.90
46676;DHT22;32412;51.478;5.694;2023-07-29T12:02:23;20.40;99.90
46676;DHT22;32412;51.478;5.694;2023-07-29T12:04:50;20.40;99.90
46676;DHT22;32412;51.478;5.694;2023-07-29T12:07:17;20.70;99.90
46676;DHT22;32412;51.478;5.694;2023-07-29T12:09:43;21.00;99.90
46676;DHT22;32412;51.478;5.694;2023-07-29T12:12:09;21.20;99.90
46676;DHT22;32412;51.478;5.694;2023-07-29T12:14:35;21.20;99.90
46676;DHT22;32412;51.478;5.694;2023-07-29T12:17:05;21.10;99.90
46676;DHT22;32412;51.478;5.694;2023-07-29T12:19:38;21.00;99.90
46676;DHT22;32412;51.478;5.694;2023-07-29T12:22:06;20.90;99.90
46676;DHT22;32412;51.478;5.694;2023-07-29T12:24:33;20.80;99.90
46676;DHT22;32412;51.478;5.694;2023-07-29T12:27:00;20.80;99.90
46676;DHT22;32412;51.478;5.694;2023-07-29T12:29:26;20.80;99.90
46676;DHT22;32412;51.478;5.694;2023-07-29T12:32:00;20.60;99.90
46676;DHT22;32412;51.478;5.694;2023-07-29T12:34:30;20.20;99.90
46676;DHT22;32412;51.478;5.694;2023-07-29T12:36:58;19.90;99.90
46676;DHT22;32412;51.478;5.694;2023-07-29T12:39:32;19.80;99.90
46676;DHT22;32412;51.478;5.694;2023-07-29T12:41:59;19.80;99.90
46676;DHT22;32412;51.478;5.694;2023-07-29T12:44:30;19.80;99.90
46676;DHT22;32412;51.478;5.694;2023-07-29T12:46:56;19.70;99.90
46676;DHT22;32412;51.478;5.694;2023-07-29T12:49:22;19.70;99.90
46676;DHT22;32412;51.478;5.694;2023-07-29T12:51:48;19.40;99.90
46676;DHT22;32412;51.478;5.694;2023-07-29T12:54:13;19.20;99.90
46676;DHT22;32412;51.478;5.694;2023-07-29T12:56:39;19.10;99.90
46676;DHT22;32412;51.478;5.694;2023-07-29T12:59:05;18.70;99.90
46676;DHT22;32412;51.478;5.694;2023-07-29T13:01:31;18.40;99.90
46676;DHT22;32412;51.478;5.694;2023-07-29T13:03:57;18.10;99.90
46676;DHT22;32412;51.478;5.694;2023-07-29T13:06:23;18.00;99.90
46676;DHT22;32412;51.478;5.694;2023-07-29T13:08:49;18.10;99.90
46676;DHT22;32412;51.478;5.694;2023-07-29T13:11:15;18.30;99.90
46676;DHT22;32412;51.478;5.694;2023-07-29T13:13:41;18.50;99.90
46676;DHT22;32412;51.478;5.694;2023-07-29T13:16:06;19.10;99.90
46676;DHT22;32412;51.478;5.694;2023-07-29T13:18:33;19.70;99.90
46676;DHT22;32412;51.478;5.694;2023-07-29T13:20:58;20.50;99.90
46676;DHT22;32412;51.478;5.694;2023-07-29T13:23:26;20.80;99.90
46676;DHT22;32412;51.478;5.694;2023-07-29T13:25:52;21.30;99.90
46676;DHT22;32412;51.478;5.694;2023-07-29T13:28:18;21.60;99.90
46676;DHT22;32412;51.478;5.694;2023-07-29T13:30:44;21.60;99.90
46676;DHT22;32412;51.478;5.694;2023-07-29T13:33:10;21.40;99.90
46676;DHT22;32412;51.478;5.694;2023-07-29T13:35:35;21.30;99.90
46676;DHT22;32412;51.478;5.694;2023-07-29T13:38:01;21.30;99.90
46676;DHT22;32412;51.478;5.694;2023-07-29T13:40:27;21.30;99.90
46676;DHT22;32412;51.478;5.694;2023-07-29T13:42:56;21.10;99.90
46676;DHT22;32412;51.478;5.694;2023-07-29T13:45:22;21.20;99.90
46676;DHT22;32412;51.478;5.694;2023-07-29T13:47:48;21.70;99.90
46676;DHT22;32412;51.478;5.694;2023-07-29T13:50:15;22.10;99.90
46676;DHT22;32412;51.478;5.694;2023-07-29T13:52:41;22.30;99.90
46676;DHT22;32412;51.478;5.694;2023-07-29T13:55:07;22.00;99.90
46676;DHT22;32412;51.478;5.694;2023-07-29T13:57:33;21.90;99.90
46676;DHT22;32412;51.478;5.694;2023-07-29T13:59:58;21.70;99.90
46676;DHT22;32412;51.478;5.694;2023-07-29T14:02:24;21.50;99.90
46676;DHT22;32412;51.478;5.694;2023-07-29T14:04:52;21.30;99.90
46676;DHT22;32412;51.478;5.694;2023-07-29T14:07:18;21.30;99.90
46676;DHT22;32412;51.478;5.694;2023-07-29T14:09:43;21.30;99.90
46676;DHT22;32412;51.478;5.694;2023-07-29T14:12:09;21.40;99.90
46676;DHT22;32412;51.478;5.694;2023-07-29T14:14:38;21.30;99.90
46676;DHT22;32412;51.478;5.694;2023-07-29T14:17:04;21.40;99.90
46676;DHT22;32412;51.478;5.694;2023-07-29T14:19:31;21.50;99.90
46676;DHT22;32412;51.478;5.694;2023-07-29T14:21:56;21.60;99.90
46676;DHT22;32412;51.478;5.694;2023-07-29T14:24:22;21.60;99.90
46676;DHT22;32412;51.478;5.694;2023-07-29T14:26:48;22.00;99.90
46676;DHT22;32412;51.478;5.694;2023-07-29T14:29:13;22.40;99.90
46676;DHT22;32412;51.478;5.694;2023-07-29T14:31:39;22.50;99.90
46676;DHT22;32412;51.478;5.694;2023-07-29T14:34:05;22.30;99.90
46676;DHT22;32412;51.478;5.694;2023-07-29T14:36:30;22.30;99.90
46676;DHT22;32412;51.478;5.694;2023-07-29T14:38:56;22.20;99.90
46676;DHT22;32412;51.478;5.694;2023-07-29T14:41:22;22.30;99.90
46676;DHT22;32412;51.478;5.694;2023-07-29T14:43:47;22.50;99.90
46676;DHT22;32412;51.478;5.694;2023-07-29T14:46:13;22.60;99.90
46676;DHT22;32412;51.478;5.694;2023-07-29T14:48:39;22.90;99.90
46676;DHT22;32412;51.478;5.694;2023-07-29T14:51:04;23.10;99.90
46676;DHT22;32412;51.478;5.694;2023-07-29T14:53:30;23.10;99.90
46676;DHT22;32412;51.478;5.694;2023-07-29T14:55:55;23.00;99.90
46676;DHT22;32412;51.478;5.694;2023-07-29T14:58:21;23.00;99.90
46676;DHT22;32412;51.478;5.694;2023-07-29T15:00:47;22.90;99.90
46676;DHT22;32412;51.478;5.694;2023-07-29T15:03:13;22.90;99.90
46676;DHT22;32412;51.478;5.694;2023-07-29T15:05:38;22.90;99.90
46676;DHT22;32412;51.478;5.694;2023-07-29T15:08:06;23.00;99.90
46676;DHT22;32412;51.478;5.694;2023-07-29T15:10:31;23.10;99.90
46676;DHT22;32412;51.478;5.694;2023-07-29T15:12:57;23.00;99.90
46676;DHT22;32412;51.478;5.694;2023-07-29T15:15:22;23.00;99.90
46676;DHT22;32412;51.478;5.694;2023-07-29T15:17:48;22.90;99.90
46676;DHT22;32412;51.478;5.694;2023-07-29T15:20:14;22.80;99.90
46676;DHT22;32412;51.478;5.694;2023-07-29T15:22:39;22.80;99.90
46676;DHT22;32412;51.478;5.694;2023-07-29T15:25:05;22.80;99.90
46676;DHT22;32412;51.478;5.694;2023-07-29T15:27:31;23.00;99.90
46676;DHT22;32412;51.478;5.694;2023-07-29T15:29:56;23.10;99.90
46676;DHT22;32412;51.478;5.694;2023-07-29T15:32:22;23.10;99.90
46676;DHT22;32412;51.478;5.694;2023-07-29T15:34:51;23.10;99.90
46676;DHT22;32412;51.478;5.694;2023-07-29T15:37:17;23.40;99.90
46676;DHT22;32412;51.478;5.694;2023-07-29T15:39:45;23.70;99.90
46676;DHT22;32412;51.478;5.694;2023-07-29T15:42:11;23.80;99.90
46676;DHT22;32412;51.478;5.694;2023-07-29T15:44:37;23.80;99.90
46676;DHT22;32412;51.478;5.694;2023-07-29T15:47:03;23.70;99.90
46676;DHT22;32412;51.478;5.694;2023-07-29T15:49:29;23.70;99.90